createdAt,value
2019-03-03T00:00:40.715Z,10.00
2019-03-03T00:03:09.171Z,10.00
2019-03-03T00:05:37.788Z,10.00
2019-03-03T00:08:06.171Z,10.00
2019-03-03T00:10:34.779Z,10.10
2019-03-03T00:13:03.856Z,10.10
2019-03-03T00:15:32.828Z,10.10
2019-03-03T00:18:01.438Z,10.20
2019-03-03T00:20:30.040Z,10.10
2019-03-03T00:22:58.672Z,10.10
2019-03-03T00:25:27.028Z,10.10
2019-03-03T00:27:55.636Z,10.00
2019-03-03T00:30:24.240Z,10.00
2019-03-03T00:32:52.619Z,10.00
2019-03-03T00:35:21.000Z,9.90
2019-03-03T00:37:59.998Z,9.90
2019-03-03T00:40:46.054Z,9.80
2019-03-03T00:43:21.968Z,9.70
2019-03-03T00:45:52.042Z,9.70
2019-03-03T00:48:22.293Z,9.70
2019-03-03T00:51:08.271Z,9.70
2019-03-03T00:53:53.035Z,9.80
2019-03-03T00:56:23.271Z,9.80
2019-03-03T00:58:53.292Z,9.80
2019-03-03T01:01:25.976Z,9.80
2019-03-03T01:04:10.588Z,9.90
2019-03-03T01:06:46.284Z,9.90
2019-03-03T01:09:28.079Z,9.90
2019-03-03T01:11:58.159Z,9.90
2019-03-03T01:14:31.312Z,9.80
2019-03-03T01:17:01.555Z,9.80
2019-03-03T01:19:33.979Z,9.70
2019-03-03T01:22:12.984Z,9.70
2019-03-03T01:24:43.008Z,9.70
2019-03-03T01:27:11.452Z,9.70
2019-03-03T01:29:40.071Z,9.60
2019-03-03T01:32:08.665Z,9.60
2019-03-03T01:34:37.043Z,9.60
2019-03-03T01:37:05.643Z,9.60
2019-03-03T01:39:34.247Z,9.60
2019-03-03T01:42:02.615Z,9.60
2019-03-03T01:44:30.997Z,9.50
2019-03-03T01:46:59.596Z,9.50
2019-03-03T01:49:28.204Z,9.50
2019-03-03T01:51:56.807Z,9.50
2019-03-03T01:54:25.414Z,9.50
2019-03-03T01:56:54.019Z,9.50
2019-03-03T01:59:22.624Z,9.50
2019-03-03T02:01:51.000Z,9.50
2019-03-03T02:04:19.387Z,9.60
2019-03-03T02:06:47.903Z,9.60
2019-03-03T02:09:16.671Z,9.60
2019-03-03T02:11:45.048Z,9.70
2019-03-03T02:14:13.421Z,9.70
2019-03-03T02:16:42.033Z,9.80
2019-03-03T02:19:10.404Z,9.80
2019-03-03T02:21:38.783Z,9.80
2019-03-03T02:24:07.383Z,9.80
2019-03-03T02:26:35.799Z,9.80
2019-03-03T02:29:05.883Z,9.80
2019-03-03T02:31:34.265Z,9.80
2019-03-03T02:34:02.872Z,9.80
2019-03-03T02:36:31.549Z,9.80
2019-03-03T02:39:00.176Z,9.80
2019-03-03T02:41:28.538Z,9.80
2019-03-03T02:43:57.141Z,9.80
2019-03-03T02:46:25.527Z,9.80
2019-03-03T02:48:53.896Z,9.70
2019-03-03T02:51:22.499Z,9.70
2019-03-03T02:53:51.109Z,9.80
2019-03-03T02:56:19.496Z,9.80
2019-03-03T02:58:47.858Z,9.90
2019-03-03T03:01:23.845Z,9.90
2019-03-03T03:03:52.195Z,9.90
2019-03-03T03:06:22.208Z,9.90
2019-03-03T03:09:08.468Z,9.90
2019-03-03T03:11:41.565Z,9.90
2019-03-03T03:14:17.524Z,9.90
2019-03-03T03:16:47.537Z,9.90
2019-03-03T03:19:17.555Z,9.90
2019-03-03T03:22:05.581Z,9.90
2019-03-03T03:24:35.597Z,9.90
2019-03-03T03:27:21.632Z,10.00
2019-03-03T03:29:51.647Z,10.00
2019-03-03T03:32:24.433Z,10.00
2019-03-03T03:34:57.084Z,10.00
2019-03-03T03:37:30.278Z,10.00
2019-03-03T03:40:00.516Z,10.00
2019-03-03T03:42:33.444Z,9.90
2019-03-03T03:45:03.693Z,10.00
2019-03-03T03:47:33.704Z,10.00
2019-03-03T03:50:09.785Z,10.00
2019-03-03T03:52:42.521Z,10.00
2019-03-03T03:55:24.593Z,10.00
2019-03-03T03:58:06.720Z,10.00
2019-03-03T04:00:45.381Z,10.00
2019-03-03T04:03:30.248Z,10.00
2019-03-03T04:06:02.997Z,10.00
2019-03-03T04:08:35.483Z,9.90
2019-03-03T04:11:20.243Z,10.00
2019-03-03T04:13:53.140Z,10.00
2019-03-03T04:16:23.382Z,10.00
2019-03-03T04:18:53.633Z,10.00
2019-03-03T04:21:29.611Z,10.00
2019-03-03T04:24:02.554Z,9.90
2019-03-03T04:26:38.644Z,9.90
2019-03-03T04:29:11.601Z,9.90
2019-03-03T04:31:41.835Z,9.90
2019-03-03T04:34:12.072Z,9.90
2019-03-03T04:36:48.158Z,9.90
2019-03-03T04:39:21.183Z,9.90
2019-03-03T04:41:51.194Z,9.90
2019-03-03T04:44:21.268Z,9.90
2019-03-03T04:46:54.265Z,9.90
2019-03-03T04:49:27.215Z,9.90
2019-03-03T04:51:57.447Z,9.90
2019-03-03T04:54:27.693Z,9.90
2019-03-03T04:56:57.927Z,10.00
2019-03-03T04:59:36.839Z,9.90
2019-03-03T05:02:15.859Z,10.00
2019-03-03T05:04:45.883Z,10.00
2019-03-03T05:07:24.838Z,10.00
2019-03-03T05:09:57.804Z,10.00
2019-03-03T05:12:33.491Z,10.00
2019-03-03T05:15:19.527Z,10.00
2019-03-03T05:18:01.604Z,9.90
2019-03-03T05:20:31.868Z,10.00
2019-03-03T05:23:00.471Z,10.00
2019-03-03T05:25:29.076Z,10.00
2019-03-03T05:27:57.683Z,10.00
2019-03-03T05:30:26.300Z,10.00
2019-03-03T05:32:54.669Z,10.00
2019-03-03T05:35:23.060Z,10.00
2019-03-03T05:37:51.435Z,10.00
2019-03-03T05:40:20.047Z,10.00
2019-03-03T05:42:48.647Z,10.00
2019-03-03T05:45:17.259Z,10.10
2019-03-03T05:47:45.635Z,10.00
2019-03-03T05:50:14.248Z,10.00
2019-03-03T05:52:42.863Z,10.00
2019-03-03T05:55:11.252Z,10.10
2019-03-03T05:57:39.855Z,10.10
2019-03-03T06:00:10.148Z,10.00
2019-03-03T06:02:38.743Z,10.10
2019-03-03T06:05:07.275Z,10.10
2019-03-03T06:07:35.871Z,10.10
2019-03-03T06:10:07.463Z,10.10
2019-03-03T06:12:35.848Z,10.10
2019-03-03T06:15:07.264Z,10.10
2019-03-03T06:17:35.859Z,10.10
2019-03-03T06:20:06.979Z,10.10
2019-03-03T06:22:35.351Z,10.10
2019-03-03T06:25:04.675Z,10.10
2019-03-03T06:27:33.283Z,10.10
2019-03-03T06:30:01.655Z,10.10
2019-03-03T06:32:30.100Z,10.10
2019-03-03T06:35:00.315Z,10.20
2019-03-03T06:37:28.941Z,10.20
2019-03-03T06:39:57.315Z,10.20
2019-03-03T06:42:25.923Z,10.20
2019-03-03T06:44:54.532Z,10.20
2019-03-03T06:47:22.920Z,10.20
2019-03-03T06:49:51.296Z,10.20
2019-03-03T06:52:19.735Z,10.20
2019-03-03T06:54:48.330Z,10.20
2019-03-03T06:57:16.729Z,10.20
2019-03-03T06:59:45.324Z,10.20
2019-03-03T07:02:16.711Z,10.20
2019-03-03T07:04:45.331Z,10.20
2019-03-03T07:07:13.757Z,10.30
2019-03-03T07:09:42.161Z,10.20
2019-03-03T07:12:10.556Z,10.20
2019-03-03T07:14:39.177Z,10.30
2019-03-03T07:17:07.583Z,10.30
2019-03-03T07:19:36.202Z,10.30
2019-03-03T07:22:06.118Z,10.30
2019-03-03T07:24:34.679Z,10.30
2019-03-03T07:27:03.309Z,10.30
2019-03-03T07:29:31.907Z,10.30
2019-03-03T07:32:00.283Z,10.30
2019-03-03T07:34:28.663Z,10.30
2019-03-03T07:36:57.038Z,10.40
2019-03-03T07:39:25.451Z,10.40
2019-03-03T07:41:54.055Z,10.40
2019-03-03T07:44:22.475Z,10.40
2019-03-03T07:46:51.081Z,10.40
2019-03-03T07:49:19.468Z,10.40
2019-03-03T07:51:48.064Z,10.50
2019-03-03T07:54:16.492Z,10.50
2019-03-03T07:56:45.098Z,10.50
2019-03-03T07:59:13.711Z,10.50
2019-03-03T08:01:42.084Z,10.50
2019-03-03T08:04:10.466Z,10.40
2019-03-03T08:06:39.078Z,10.40
2019-03-03T08:09:08.528Z,10.50
2019-03-03T08:11:36.987Z,10.50
2019-03-03T08:14:05.367Z,10.50
2019-03-03T08:16:33.748Z,10.50
2019-03-03T08:19:02.379Z,10.50
2019-03-03T08:21:30.755Z,10.60
2019-03-03T08:23:59.231Z,10.60
2019-03-03T08:26:27.840Z,10.60
2019-03-03T08:28:56.222Z,10.70
2019-03-03T08:31:24.724Z,10.70
2019-03-03T08:33:53.340Z,10.70
2019-03-03T08:36:21.955Z,10.80
2019-03-03T08:38:50.564Z,10.90
2019-03-03T08:41:18.951Z,10.90
2019-03-03T08:43:48.971Z,10.90
2019-03-03T08:46:19.232Z,11.00
2019-03-03T08:48:52.152Z,11.00
2019-03-03T08:51:22.421Z,11.00
2019-03-03T08:53:58.339Z,11.00
2019-03-03T08:56:40.384Z,11.00
2019-03-03T08:59:10.390Z,11.00
2019-03-03T09:01:43.092Z,11.00
2019-03-03T09:04:15.999Z,11.00
2019-03-03T09:07:01.006Z,11.00
2019-03-03T09:09:40.260Z,11.10
2019-03-03T09:12:12.956Z,11.00
2019-03-03T09:14:43.207Z,11.10
2019-03-03T09:17:19.204Z,11.10
2019-03-03T09:20:05.196Z,11.10
2019-03-03T09:22:38.099Z,11.10
2019-03-03T09:25:25.451Z,11.10
2019-03-03T09:27:57.161Z,11.10
2019-03-03T09:30:39.351Z,11.10
2019-03-03T09:33:25.787Z,11.10
2019-03-03T09:35:55.827Z,11.20
2019-03-03T09:38:37.367Z,11.20
2019-03-03T09:41:10.316Z,11.20
2019-03-03T09:43:40.336Z,11.20
2019-03-03T09:46:16.028Z,11.30
2019-03-03T09:49:02.302Z,11.30
2019-03-03T09:51:38.142Z,11.30
2019-03-03T09:54:26.039Z,11.30
2019-03-03T09:57:05.120Z,11.30
2019-03-03T09:59:53.027Z,11.40
2019-03-03T10:02:25.956Z,11.60
2019-03-03T10:04:56.202Z,11.60
2019-03-03T10:07:42.326Z,11.60
2019-03-03T10:10:28.550Z,11.70
2019-03-03T10:13:10.776Z,11.80
2019-03-03T10:15:43.451Z,11.80
2019-03-03T10:18:18.900Z,11.90
2019-03-03T10:20:54.599Z,12.00
2019-03-03T10:23:27.553Z,11.90
2019-03-03T10:26:03.265Z,12.00
2019-03-03T10:28:36.469Z,12.00
2019-03-03T10:31:08.924Z,12.00
2019-03-03T10:33:44.695Z,12.00
2019-03-03T10:36:14.999Z,12.20
2019-03-03T10:38:48.188Z,12.20
2019-03-03T10:41:20.917Z,12.30
2019-03-03T10:43:53.954Z,12.30
2019-03-03T10:46:39.024Z,12.30
2019-03-03T10:49:09.347Z,12.30
2019-03-03T10:51:42.156Z,12.30
2019-03-03T10:54:27.924Z,12.30
2019-03-03T10:57:00.338Z,12.20
2019-03-03T10:59:33.344Z,12.20
2019-03-03T11:02:03.395Z,12.30
2019-03-03T11:04:36.324Z,12.20
2019-03-03T11:07:12.089Z,12.00
2019-03-03T11:09:57.891Z,12.00
2019-03-03T11:12:44.225Z,11.90
2019-03-03T11:15:21.737Z,12.00
2019-03-03T11:17:54.619Z,12.00
2019-03-03T11:20:24.683Z,12.00
2019-03-03T11:22:54.931Z,12.00
2019-03-03T11:25:36.532Z,12.10
2019-03-03T11:28:12.687Z,12.10
2019-03-03T11:30:42.951Z,12.20
2019-03-03T11:33:29.063Z,12.10
2019-03-03T11:35:59.324Z,12.10
2019-03-03T11:38:29.344Z,12.00
2019-03-03T11:41:10.840Z,12.00
2019-03-03T11:43:41.094Z,12.10
2019-03-03T11:46:16.600Z,12.10
2019-03-03T11:48:52.508Z,12.10
2019-03-03T11:51:31.721Z,12.10
2019-03-03T11:54:01.984Z,12.20
2019-03-03T11:56:35.187Z,12.30
2019-03-03T11:59:21.252Z,12.30
2019-03-03T12:02:06.341Z,12.30
2019-03-03T12:04:54.492Z,12.30
2019-03-03T12:07:25.004Z,12.30
2019-03-03T12:10:00.946Z,12.30
2019-03-03T12:12:31.023Z,12.30
2019-03-03T12:15:03.585Z,12.30
2019-03-03T12:17:45.681Z,12.30
2019-03-03T12:20:18.962Z,12.40
2019-03-03T12:22:58.104Z,12.40
2019-03-03T12:25:44.124Z,12.40
2019-03-03T12:28:14.140Z,12.40
2019-03-03T12:30:49.822Z,12.30
2019-03-03T12:33:34.735Z,12.40
2019-03-03T12:36:10.782Z,12.30
2019-03-03T12:38:49.911Z,12.40
2019-03-03T12:41:19.933Z,12.40
2019-03-03T12:43:50.175Z,12.40
2019-03-03T12:46:36.411Z,12.40
2019-03-03T12:49:06.679Z,12.40
2019-03-03T12:51:36.940Z,12.40
2019-03-03T12:54:06.987Z,12.30
2019-03-03T12:56:42.701Z,12.30
2019-03-03T12:59:13.013Z,12.40
2019-03-03T13:01:43.255Z,12.40
2019-03-03T13:04:19.288Z,12.40
2019-03-03T13:06:49.536Z,12.40
2019-03-03T13:09:22.420Z,12.40
2019-03-03T13:11:55.639Z,12.40
2019-03-03T13:14:40.683Z,12.40
2019-03-03T13:17:16.453Z,12.40
2019-03-03T13:19:49.122Z,12.30
2019-03-03T13:22:33.888Z,12.30
2019-03-03T13:25:09.843Z,12.30
2019-03-03T13:27:40.091Z,12.30
2019-03-03T13:30:18.782Z,12.30
2019-03-03T13:33:04.111Z,12.40
2019-03-03T13:35:46.335Z,12.40
2019-03-03T13:38:25.154Z,12.40
2019-03-03T13:41:07.559Z,12.40
2019-03-03T13:43:36.260Z,12.50
2019-03-03T13:46:04.867Z,12.50
2019-03-03T13:48:33.251Z,12.40
2019-03-03T13:51:01.630Z,12.40
2019-03-03T13:53:30.247Z,12.40
2019-03-03T13:55:58.864Z,12.40
2019-03-03T13:58:27.243Z,12.40
2019-03-03T14:00:55.620Z,12.30
2019-03-03T14:03:24.235Z,12.30
2019-03-03T14:05:52.892Z,12.40
2019-03-03T14:08:21.371Z,12.30
2019-03-03T14:10:49.749Z,12.30
2019-03-03T14:13:18.354Z,12.30
2019-03-03T14:15:46.727Z,12.40
2019-03-03T14:18:15.139Z,12.30
2019-03-03T14:20:43.751Z,12.30
2019-03-03T14:23:12.151Z,12.30
2019-03-03T14:25:40.787Z,12.30
2019-03-03T14:28:09.176Z,12.30
2019-03-03T14:30:37.796Z,12.40
2019-03-03T14:33:06.417Z,12.40
2019-03-03T14:35:34.790Z,12.40
2019-03-03T14:38:03.398Z,12.40
2019-03-03T14:40:31.779Z,12.50
2019-03-03T14:43:00.395Z,12.40
2019-03-03T14:45:28.771Z,12.40
2019-03-03T14:47:57.367Z,12.40
2019-03-03T14:50:25.846Z,12.40
2019-03-03T14:52:56.486Z,12.40
2019-03-03T14:55:25.117Z,12.30
2019-03-03T14:57:53.527Z,12.40
2019-03-03T15:00:31.281Z,12.40
2019-03-03T15:03:01.524Z,12.30
2019-03-03T15:05:30.477Z,12.30
2019-03-03T15:07:59.026Z,12.30
2019-03-03T15:10:27.719Z,12.30
2019-03-03T15:12:56.396Z,12.20
2019-03-03T15:15:27.020Z,12.30
2019-03-03T15:17:55.391Z,12.30
2019-03-03T15:20:24.248Z,12.20
2019-03-03T15:22:52.879Z,12.20
2019-03-03T15:25:21.995Z,12.20
2019-03-03T15:27:50.609Z,12.20
2019-03-03T15:30:23.096Z,12.20
2019-03-03T15:32:51.790Z,12.30
2019-03-03T15:35:20.468Z,12.20
2019-03-03T15:37:49.137Z,12.20
2019-03-03T15:40:22.111Z,12.20
2019-03-03T15:42:50.494Z,12.20
2019-03-03T15:45:29.141Z,12.20
2019-03-03T15:47:57.583Z,12.30
2019-03-03T15:50:25.978Z,12.30
2019-03-03T15:52:54.348Z,12.30
2019-03-03T15:55:24.769Z,12.30
2019-03-03T15:57:53.153Z,12.30
2019-03-03T16:00:41.639Z,12.30
2019-03-03T16:03:10.081Z,12.30
2019-03-03T16:05:38.778Z,12.30
2019-03-03T16:08:07.152Z,12.30
2019-03-03T16:10:35.780Z,12.30
2019-03-03T16:13:04.335Z,12.30
2019-03-03T16:15:32.932Z,12.30
2019-03-03T16:18:01.547Z,12.40
2019-03-03T16:20:30.143Z,12.40
2019-03-03T16:22:58.528Z,12.40
2019-03-03T16:25:26.980Z,12.40
2019-03-03T16:27:55.594Z,12.40
2019-03-03T16:30:24.696Z,12.40
2019-03-03T16:32:53.383Z,12.40
2019-03-03T16:35:21.832Z,12.40
2019-03-03T16:37:50.455Z,12.40
2019-03-03T16:40:21.563Z,12.30
2019-03-03T16:42:50.005Z,12.40
2019-03-03T16:45:18.835Z,12.30
2019-03-03T16:47:47.620Z,12.40
2019-03-03T16:50:17.848Z,12.40
2019-03-03T16:52:46.692Z,12.40
2019-03-03T16:55:16.407Z,12.40
2019-03-03T16:57:45.089Z,12.40
2019-03-03T17:00:16.252Z,12.40
2019-03-03T17:02:44.963Z,12.40
2019-03-03T17:05:18.395Z,12.40
2019-03-03T17:07:47.115Z,12.50
2019-03-03T17:10:15.720Z,12.40
2019-03-03T17:12:44.111Z,12.40
2019-03-03T17:15:18.698Z,12.40
2019-03-03T17:17:47.317Z,12.40
2019-03-03T17:20:16.011Z,12.40
2019-03-03T17:22:44.619Z,12.40
2019-03-03T17:25:15.827Z,12.40
2019-03-03T17:27:44.219Z,12.40
2019-03-03T17:30:17.715Z,12.40
2019-03-03T17:32:46.328Z,12.40
2019-03-03T17:35:14.897Z,12.50
2019-03-03T17:37:43.555Z,12.50
2019-03-03T17:40:22.611Z,12.50
2019-03-03T17:42:51.213Z,12.50
2019-03-03T17:45:23.697Z,12.50
2019-03-03T17:47:52.541Z,12.40
2019-03-03T17:50:25.766Z,12.50
2019-03-03T17:52:54.305Z,12.40
2019-03-03T17:55:22.967Z,12.50
2019-03-03T17:57:51.347Z,12.40
2019-03-03T18:00:28.224Z,12.50
2019-03-03T18:02:56.634Z,12.40
2019-03-03T18:05:25.028Z,12.50
2019-03-03T18:07:53.433Z,12.40
2019-03-03T18:10:21.864Z,12.40
2019-03-03T18:12:50.242Z,12.40
2019-03-03T18:15:18.693Z,12.40
2019-03-03T18:17:47.069Z,12.40
2019-03-03T18:20:20.371Z,12.40
2019-03-03T18:22:48.916Z,12.30
2019-03-03T18:25:18.660Z,12.40
2019-03-03T18:27:47.332Z,12.40
2019-03-03T18:30:17.980Z,12.40
2019-03-03T18:32:46.587Z,12.40
2019-03-03T18:35:15.035Z,12.40
2019-03-03T18:37:43.703Z,12.40
2019-03-03T18:40:17.251Z,12.40
2019-03-03T18:42:46.104Z,12.40
2019-03-03T18:45:16.656Z,12.30
2019-03-03T18:47:45.083Z,12.30
2019-03-03T18:50:16.099Z,12.30
2019-03-03T18:52:44.493Z,12.20
2019-03-03T18:55:13.228Z,12.30
2019-03-03T18:57:41.904Z,12.20
2019-03-03T19:00:13.404Z,12.30
2019-03-03T19:02:41.783Z,12.30
2019-03-03T19:05:10.284Z,12.30
2019-03-03T19:07:38.671Z,12.30
2019-03-03T19:10:12.983Z,12.30
2019-03-03T19:12:41.367Z,12.30
2019-03-03T19:15:12.450Z,12.30
2019-03-03T19:17:40.835Z,12.30
2019-03-03T19:20:13.997Z,12.30
2019-03-03T19:22:42.674Z,12.20
2019-03-03T19:25:12.788Z,12.20
2019-03-03T19:27:41.391Z,12.20
2019-03-03T19:30:15.943Z,12.20
2019-03-03T19:32:44.796Z,12.20
2019-03-03T19:35:13.463Z,12.20
2019-03-03T19:37:41.927Z,12.20
2019-03-03T19:40:12.044Z,12.20
2019-03-03T19:42:40.656Z,12.20
2019-03-03T19:45:12.103Z,12.20
2019-03-03T19:47:40.487Z,12.20
2019-03-03T19:50:11.600Z,12.20
2019-03-03T19:52:39.979Z,12.20
2019-03-03T19:55:11.723Z,12.20
2019-03-03T19:57:40.480Z,12.20
2019-03-03T20:00:17.664Z,12.20
2019-03-03T20:02:46.123Z,12.30
2019-03-03T20:05:14.870Z,12.20
2019-03-03T20:07:43.252Z,12.20
2019-03-03T20:10:13.492Z,12.20
2019-03-03T20:12:42.104Z,12.20
2019-03-03T20:15:11.157Z,12.10
2019-03-03T20:17:41.380Z,12.10
2019-03-03T20:20:12.396Z,12.10
2019-03-03T20:22:40.948Z,12.10
2019-03-03T20:25:10.303Z,12.00
2019-03-03T20:27:38.939Z,12.10
2019-03-03T20:30:10.332Z,12.10
2019-03-03T20:32:38.712Z,12.10
2019-03-03T20:35:09.875Z,12.10
2019-03-03T20:37:38.322Z,12.10
2019-03-03T20:40:20.395Z,12.20
2019-03-03T20:42:48.886Z,12.20
2019-03-03T20:45:23.198Z,12.20
2019-03-03T20:47:51.799Z,12.30
2019-03-03T20:50:21.226Z,12.30
2019-03-03T20:52:50.439Z,12.30
2019-03-03T20:55:27.116Z,12.30
2019-03-03T20:57:55.495Z,12.40
2019-03-03T21:00:25.977Z,12.40
2019-03-03T21:02:54.803Z,12.40
2019-03-03T21:05:23.267Z,12.40
2019-03-03T21:07:52.220Z,12.40
2019-03-03T21:10:23.769Z,12.40
2019-03-03T21:12:52.146Z,12.50
2019-03-03T21:15:21.024Z,12.50
2019-03-03T21:17:49.651Z,12.40
2019-03-03T21:20:24.503Z,12.50
2019-03-03T21:22:52.879Z,12.40
2019-03-03T21:25:21.407Z,12.40
2019-03-03T21:27:49.793Z,12.40
2019-03-03T21:30:27.158Z,12.40
2019-03-03T21:32:55.538Z,12.40
2019-03-03T21:35:24.218Z,12.40
2019-03-03T21:37:52.756Z,12.40
2019-03-03T21:40:22.279Z,12.40
2019-03-03T21:42:50.947Z,12.40
2019-03-03T21:45:24.659Z,12.40
2019-03-03T21:47:53.187Z,12.40
2019-03-03T21:50:31.262Z,12.40
2019-03-03T21:52:59.865Z,12.50
2019-03-03T21:55:28.255Z,12.40
2019-03-03T21:57:57.103Z,12.30
2019-03-03T22:00:34.569Z,12.20
2019-03-03T22:03:03.171Z,12.10
2019-03-03T22:05:31.570Z,12.10
2019-03-03T22:07:59.947Z,11.90
2019-03-03T22:10:33.555Z,11.90
2019-03-03T22:13:06.246Z,11.80
2019-03-03T22:15:35.730Z,11.70
2019-03-03T22:18:04.422Z,11.70
2019-03-03T22:20:32.863Z,11.70
2019-03-03T22:23:01.742Z,11.60
2019-03-03T22:25:30.485Z,11.70
2019-03-03T22:28:00.507Z,11.70
2019-03-03T22:30:29.581Z,11.70
2019-03-03T22:32:57.968Z,11.70
2019-03-03T22:35:26.568Z,11.70
2019-03-03T22:37:55.027Z,11.70
2019-03-03T22:40:24.536Z,11.80
2019-03-03T22:42:53.330Z,11.80
2019-03-03T22:45:22.491Z,11.80
2019-03-03T22:47:51.271Z,11.80
2019-03-03T22:50:20.696Z,11.80
2019-03-03T22:52:49.072Z,11.80
2019-03-03T22:55:18.907Z,11.80
2019-03-03T22:57:47.303Z,11.80
2019-03-03T23:00:44.364Z,11.70
2019-03-03T23:03:15.711Z,11.70
2019-03-03T23:05:56.294Z,11.60
2019-03-03T23:08:39.423Z,11.50
2019-03-03T23:11:13.884Z,11.40
2019-03-03T23:13:51.451Z,11.30
2019-03-03T23:16:43.781Z,11.30
2019-03-03T23:19:27.441Z,11.40
2019-03-03T23:22:30.437Z,11.40
2019-03-03T23:25:35.763Z,11.40
2019-03-03T23:28:04.151Z,11.40
2019-03-03T23:30:32.523Z,11.40
2019-03-03T23:33:01.140Z,11.50
2019-03-03T23:35:29.747Z,11.50
2019-03-03T23:37:58.356Z,11.60
2019-03-03T23:40:26.740Z,11.60
2019-03-03T23:42:55.339Z,11.60
2019-03-03T23:45:23.743Z,11.50
2019-03-03T23:47:52.335Z,11.50
2019-03-03T23:50:21.072Z,11.40
2019-03-03T23:52:49.676Z,11.40
2019-03-03T23:55:18.055Z,11.30
2019-03-03T23:57:46.440Z,11.20
